createdAt,value
2022-08-09T12:10:48.528Z,315.00
2022-08-09T12:12:02.415Z,315.00
2022-08-09T12:12:47.248Z,315.00
2022-08-09T12:14:10.441Z,315.00
2022-08-09T12:15:04.103Z,315.00
2022-08-09T12:15:50.344Z,315.00
2022-08-09T12:16:47.403Z,315.00
2022-08-09T12:17:51.955Z,315.00
2022-08-09T12:18:49.037Z,315.00
2022-08-09T12:19:47.321Z,315.00
2022-08-09T12:20:47.343Z,315.00
2022-08-09T12:21:50.283Z,340.19
2022-08-09T12:22:47.430Z,0.00
2022-08-09T12:24:06.500Z,0.00
2022-08-09T12:24:47.389Z,0.00
2022-08-09T12:25:49.509Z,0.00
2022-08-09T12:29:10.127Z,0.00
2022-08-09T12:29:11.662Z,0.00
2022-08-09T12:29:14.955Z,0.00
2022-08-09T12:29:54.045Z,0.00
2022-08-09T12:30:47.423Z,0.00
2022-08-09T12:31:58.917Z,0.00
2022-08-09T12:32:48.450Z,0.00
2022-08-09T12:33:59.335Z,0.00
2022-08-09T12:34:47.454Z,0.00
2022-08-09T12:35:47.829Z,0.00
2022-08-09T12:36:47.586Z,0.00
2022-08-09T12:37:50.569Z,0.00
2022-08-09T12:38:47.650Z,0.00
2022-08-09T12:39:47.486Z,0.00
2022-08-09T12:40:47.453Z,0.00
2022-08-09T12:41:47.457Z,0.00
2022-08-09T12:42:50.123Z,0.00
2022-08-09T12:44:04.400Z,0.00
2022-08-09T12:44:52.196Z,0.00
2022-08-09T12:45:59.630Z,0.00
2022-08-09T12:46:48.859Z,0.00
2022-08-09T12:47:50.352Z,0.00
2022-08-09T12:48:47.693Z,0.00
2022-08-09T12:49:52.995Z,0.00
2022-08-09T12:50:47.632Z,0.00
2022-08-09T12:52:00.005Z,0.00
2022-08-09T12:53:02.670Z,0.00
2022-08-09T12:53:52.961Z,0.00
2022-08-09T12:54:47.742Z,0.00
2022-08-09T12:56:15.950Z,0.00
2022-08-09T12:56:48.763Z,0.00
2022-08-09T12:57:47.639Z,0.00
2022-08-09T12:58:52.067Z,0.00
2022-08-09T13:00:02.976Z,0.00
2022-08-09T13:00:47.767Z,0.00
2022-08-09T13:01:49.694Z,0.00
2022-08-09T13:02:48.439Z,0.00
2022-08-09T13:03:53.545Z,0.00
2022-08-09T13:04:47.645Z,0.00
2022-08-09T13:06:14.792Z,0.00
2022-08-09T13:06:47.763Z,0.00
2022-08-09T13:07:51.488Z,0.00
2022-08-09T13:08:49.290Z,0.00
2022-08-09T13:09:55.608Z,0.00
2022-08-09T13:10:52.348Z,0.00
2022-08-09T13:11:47.770Z,0.00
2022-08-09T13:13:10.798Z,0.00
2022-08-09T13:14:37.271Z,0.00
2022-08-09T13:14:53.078Z,0.00
2022-08-09T13:15:47.782Z,0.00
2022-08-09T13:16:47.773Z,0.00
2022-08-09T13:18:05.105Z,0.00
2022-08-09T13:18:47.788Z,0.00
2022-08-09T13:20:09.520Z,0.00
2022-08-09T13:22:33.756Z,0.00
2022-08-09T13:22:36.906Z,0.00
2022-08-09T13:23:06.042Z,0.00
2022-08-09T13:24:16.142Z,0.00
2022-08-09T13:24:54.252Z,0.00
2022-08-09T13:25:52.779Z,0.00
2022-08-09T13:26:49.679Z,0.00
2022-08-09T13:27:54.536Z,0.00
2022-08-09T13:28:48.021Z,4.63
2022-08-09T13:30:03.671Z,90.00
2022-08-09T13:30:50.371Z,90.00
2022-08-09T13:32:14.113Z,90.00
2022-08-09T13:32:48.568Z,90.00
2022-08-09T13:33:52.837Z,90.00
2022-08-09T13:34:47.846Z,90.00
2022-08-09T13:36:41.538Z,90.00
2022-08-09T13:36:47.807Z,90.00
2022-08-09T13:37:52.222Z,90.00
2022-08-09T13:38:57.486Z,90.00
2022-08-09T13:41:52.561Z,90.00
2022-08-09T13:41:54.256Z,90.00
2022-08-09T13:41:58.381Z,90.00
2022-08-09T13:42:47.907Z,90.00
2022-08-09T13:43:47.813Z,90.00
2022-08-09T13:44:48.680Z,90.00
2022-08-09T13:46:42.794Z,90.00
2022-08-09T13:47:26.559Z,90.00
2022-08-09T13:47:51.250Z,90.00
2022-08-09T13:48:48.528Z,90.00
2022-08-09T13:49:56.459Z,90.00
2022-08-09T13:50:48.255Z,90.00
2022-08-09T13:52:00.508Z,90.00
2022-08-09T13:52:47.898Z,90.00
2022-08-09T13:53:47.864Z,90.00
2022-08-09T13:54:58.924Z,90.00
2022-08-09T13:55:48.028Z,90.00
2022-08-09T13:56:47.879Z,90.00
2022-08-09T13:57:52.983Z,90.00
2022-08-09T13:58:47.958Z,90.00
2022-08-09T13:59:47.899Z,90.00
2022-08-09T14:00:52.714Z,90.00
2022-08-09T14:01:56.443Z,23.26
2022-08-09T14:03:03.761Z,0.00
2022-08-09T14:04:05.416Z,0.00
2022-08-09T14:04:59.871Z,0.00
2022-08-09T14:05:58.604Z,0.00
2022-08-09T14:06:47.879Z,0.00
2022-08-09T14:07:47.904Z,0.00
2022-08-09T14:08:48.169Z,0.00
2022-08-09T14:09:47.880Z,0.00
2022-08-09T14:10:50.343Z,0.00
2022-08-09T14:11:48.112Z,0.00
2022-08-09T14:12:47.938Z,0.00
2022-08-09T14:14:24.515Z,247.86
2022-08-09T14:14:53.760Z,225.00
2022-08-09T14:16:10.020Z,225.00
2022-08-09T14:16:47.913Z,225.00
2022-08-09T14:18:06.492Z,225.00
2022-08-09T14:18:49.463Z,225.00
2022-08-09T14:19:47.969Z,246.70
2022-08-09T14:20:48.934Z,0.00
2022-08-09T14:21:48.076Z,0.00
2022-08-09T14:22:47.990Z,0.00
2022-08-09T14:23:55.321Z,0.00
2022-08-09T14:24:54.123Z,0.00
2022-08-09T14:25:48.114Z,0.00
2022-08-09T14:26:51.777Z,0.00
2022-08-09T14:27:58.502Z,0.00
2022-08-09T14:28:48.328Z,0.00
2022-08-09T14:30:35.158Z,0.00
2022-08-09T14:30:48.080Z,0.00
2022-08-09T14:31:49.999Z,0.00
2022-08-09T14:32:48.111Z,0.00
2022-08-09T14:33:52.201Z,360.00
2022-08-09T14:34:48.150Z,180.00
2022-08-09T14:35:52.690Z,94.77
2022-08-09T14:36:48.735Z,45.00
2022-08-09T14:38:02.799Z,45.00
2022-08-09T14:38:53.022Z,45.00
2022-08-09T14:39:48.681Z,45.00
2022-08-09T14:41:04.251Z,45.00
2022-08-09T14:41:48.252Z,45.00
2022-08-09T14:42:48.182Z,45.00
2022-08-09T14:43:53.635Z,45.00
2022-08-09T14:44:59.333Z,45.00
2022-08-09T14:46:54.700Z,45.00
2022-08-09T14:47:04.691Z,45.00
2022-08-09T14:47:57.220Z,45.00
2022-08-09T14:48:48.608Z,45.00
2022-08-09T14:50:01.382Z,45.00
2022-08-09T14:50:48.263Z,45.00
2022-08-09T14:51:48.181Z,45.00
2022-08-09T14:52:50.817Z,45.00
2022-08-09T14:53:52.477Z,45.00
2022-08-09T14:54:48.176Z,45.00
2022-08-09T14:55:50.396Z,45.00
2022-08-09T14:56:53.711Z,45.00
2022-08-09T14:57:48.755Z,45.00
2022-08-09T14:58:48.641Z,45.00
2022-08-09T14:59:48.813Z,45.00
2022-08-09T15:00:51.318Z,45.00
2022-08-09T15:01:48.227Z,45.00
2022-08-09T15:02:52.008Z,45.00
2022-08-09T15:03:48.180Z,45.00
2022-08-09T15:04:48.187Z,45.00
2022-08-09T15:05:50.283Z,31.91
2022-08-09T15:06:49.358Z,225.00
2022-08-09T15:07:56.483Z,225.00
2022-08-09T15:08:56.521Z,225.00
2022-08-09T15:10:07.362Z,225.00
2022-08-09T15:11:00.704Z,225.00
2022-08-09T15:11:51.026Z,225.00
2022-08-09T15:12:48.246Z,225.00
2022-08-09T15:14:04.350Z,225.00
2022-08-09T15:14:48.252Z,225.00
2022-08-09T15:15:48.250Z,225.00
2022-08-09T15:16:49.135Z,225.00
2022-08-09T15:17:52.503Z,225.00
2022-08-09T15:18:49.342Z,225.00
2022-08-09T15:19:58.986Z,225.00
2022-08-09T15:21:56.134Z,225.00
2022-08-09T15:22:00.453Z,225.00
2022-08-09T15:22:48.213Z,225.00
2022-08-09T15:24:01.448Z,225.00
2022-08-09T15:24:48.279Z,225.00
2022-08-09T15:25:48.321Z,225.00
2022-08-09T15:26:48.263Z,225.00
2022-08-09T15:28:00.295Z,225.00
2022-08-09T15:28:54.643Z,225.00
2022-08-09T15:30:57.362Z,225.00
2022-08-09T15:31:03.208Z,225.00
2022-08-09T15:31:48.345Z,225.00
2022-08-09T15:32:48.295Z,225.00
2022-08-09T15:34:31.163Z,225.00
2022-08-09T15:34:48.278Z,229.62
2022-08-09T15:36:02.207Z,0.00
2022-08-09T15:36:52.447Z,0.00
2022-08-09T15:37:57.233Z,0.00
2022-08-09T15:38:48.321Z,0.00
2022-08-09T15:39:55.068Z,0.00
2022-08-09T15:40:48.225Z,0.00
2022-08-09T15:41:50.544Z,0.00
2022-08-09T15:42:48.386Z,0.00
2022-08-09T15:43:48.411Z,0.00
2022-08-09T15:44:48.377Z,0.00
2022-08-09T15:45:51.700Z,0.00
2022-08-09T15:46:48.345Z,0.00
2022-08-09T15:48:03.340Z,0.00
2022-08-09T15:49:21.154Z,0.00
2022-08-09T15:50:04.012Z,0.00
2022-08-09T15:50:48.400Z,0.00
2022-08-09T15:52:05.110Z,0.00
2022-08-09T15:52:54.597Z,0.00
2022-08-09T15:54:04.526Z,0.00
2022-08-09T15:54:49.509Z,0.00
